sensor_id;sensor_type;location;lat;lon;timestamp;P1;durP1;ratioP1;P2;durP2;ratioP2
82374;SDS011;72005;50.496;15.798;2023-10-31T00:01:44;4.40;;;2.42;;
82374;SDS011;72005;50.496;15.798;2023-10-31T00:04:11;6.60;;;2.80;;
82374;SDS011;72005;50.496;15.798;2023-10-31T00:06:36;5.70;;;2.40;;
82374;SDS011;72005;50.496;15.798;2023-10-31T00:09:02;4.80;;;2.15;;
82374;SDS011;72005;50.496;15.798;2023-10-31T00:11:28;5.03;;;2.50;;
82374;SDS011;72005;50.496;15.798;2023-10-31T00:13:53;5.15;;;2.08;;
82374;SDS011;72005;50.496;15.798;2023-10-31T00:16:19;5.82;;;2.40;;
82374;SDS011;72005;50.496;15.798;2023-10-31T00:18:45;4.75;;;2.08;;
82374;SDS011;72005;50.496;15.798;2023-10-31T00:21:10;6.82;;;2.30;;
82374;SDS011;72005;50.496;15.798;2023-10-31T00:23:42;2.17;;;1.90;;
82374;SDS011;72005;50.496;15.798;2023-10-31T00:26:10;7.25;;;2.28;;
82374;SDS011;72005;50.496;15.798;2023-10-31T00:28:36;4.82;;;1.83;;
82374;SDS011;72005;50.496;15.798;2023-10-31T00:31:02;5.57;;;1.95;;
82374;SDS011;72005;50.496;15.798;2023-10-31T00:33:29;3.35;;;2.10;;
82374;SDS011;72005;50.496;15.798;2023-10-31T00:35:55;3.95;;;2.35;;
82374;SDS011;72005;50.496;15.798;2023-10-31T00:38:21;5.72;;;1.98;;
82374;SDS011;72005;50.496;15.798;2023-10-31T00:40:47;2.95;;;1.70;;
82374;SDS011;72005;50.496;15.798;2023-10-31T00:43:12;4.40;;;1.90;;
82374;SDS011;72005;50.496;15.798;2023-10-31T00:45:38;4.05;;;1.98;;
82374;SDS011;72005;50.496;15.798;2023-10-31T00:48:04;7.82;;;1.90;;
82374;SDS011;72005;50.496;15.798;2023-10-31T00:50:30;3.70;;;1.85;;
82374;SDS011;72005;50.496;15.798;2023-10-31T00:52:55;4.50;;;2.00;;
82374;SDS011;72005;50.496;15.798;2023-10-31T00:55:21;3.25;;;1.67;;
82374;SDS011;72005;50.496;15.798;2023-10-31T00:57:47;2.35;;;1.63;;
82374;SDS011;72005;50.496;15.798;2023-10-31T01:00:12;6.50;;;1.85;;
82374;SDS011;72005;50.496;15.798;2023-10-31T01:02:38;6.00;;;2.10;;
82374;SDS011;72005;50.496;15.798;2023-10-31T01:05:04;4.28;;;1.90;;
82374;SDS011;72005;50.496;15.798;2023-10-31T01:07:30;2.83;;;1.55;;
82374;SDS011;72005;50.496;15.798;2023-10-31T01:09:55;3.28;;;1.80;;
82374;SDS011;72005;50.496;15.798;2023-10-31T01:12:21;2.70;;;1.73;;
82374;SDS011;72005;50.496;15.798;2023-10-31T01:14:47;3.70;;;1.88;;
82374;SDS011;72005;50.496;15.798;2023-10-31T01:17:13;3.15;;;1.73;;
82374;SDS011;72005;50.496;15.798;2023-10-31T01:19:38;6.55;;;1.90;;
82374;SDS011;72005;50.496;15.798;2023-10-31T01:22:04;5.00;;;1.60;;
82374;SDS011;72005;50.496;15.798;2023-10-31T01:24:29;5.20;;;1.92;;
82374;SDS011;72005;50.496;15.798;2023-10-31T01:26:55;2.97;;;1.70;;
82374;SDS011;72005;50.496;15.798;2023-10-31T01:29:21;4.68;;;1.60;;
82374;SDS011;72005;50.496;15.798;2023-10-31T01:31:46;5.50;;;1.60;;
82374;SDS011;72005;50.496;15.798;2023-10-31T01:34:12;7.63;;;1.70;;
82374;SDS011;72005;50.496;15.798;2023-10-31T01:36:38;6.85;;;2.33;;
82374;SDS011;72005;50.496;15.798;2023-10-31T01:39:03;10.25;;;1.92;;
82374;SDS011;72005;50.496;15.798;2023-10-31T01:41:29;4.82;;;1.77;;
82374;SDS011;72005;50.496;15.798;2023-10-31T01:43:55;5.85;;;1.90;;
82374;SDS011;72005;50.496;15.798;2023-10-31T01:46:20;4.43;;;1.88;;
82374;SDS011;72005;50.496;15.798;2023-10-31T01:48:46;3.47;;;2.13;;
82374;SDS011;72005;50.496;15.798;2023-10-31T01:51:12;3.53;;;1.73;;
82374;SDS011;72005;50.496;15.798;2023-10-31T01:53:38;3.13;;;1.67;;
82374;SDS011;72005;50.496;15.798;2023-10-31T01:56:05;3.80;;;1.52;;
82374;SDS011;72005;50.496;15.798;2023-10-31T01:58:35;3.00;;;1.70;;
82374;SDS011;72005;50.496;15.798;2023-10-31T02:01:02;3.95;;;1.60;;
82374;SDS011;72005;50.496;15.798;2023-10-31T02:03:29;2.80;;;1.73;;
82374;SDS011;72005;50.496;15.798;2023-10-31T02:05:55;8.13;;;1.55;;
82374;SDS011;72005;50.496;15.798;2023-10-31T02:08:22;3.72;;;1.60;;
82374;SDS011;72005;50.496;15.798;2023-10-31T02:10:48;8.23;;;1.67;;
82374;SDS011;72005;50.496;15.798;2023-10-31T02:13:14;3.38;;;1.63;;
82374;SDS011;72005;50.496;15.798;2023-10-31T02:15:41;3.85;;;1.50;;
82374;SDS011;72005;50.496;15.798;2023-10-31T02:18:07;3.85;;;1.30;;
82374;SDS011;72005;50.496;15.798;2023-10-31T02:20:33;2.15;;;1.60;;
82374;SDS011;72005;50.496;15.798;2023-10-31T02:22:59;4.00;;;1.48;;
82374;SDS011;72005;50.496;15.798;2023-10-31T02:25:25;2.30;;;1.55;;
82374;SDS011;72005;50.496;15.798;2023-10-31T02:27:51;4.57;;;1.75;;
82374;SDS011;72005;50.496;15.798;2023-10-31T02:30:17;5.07;;;2.10;;
82374;SDS011;72005;50.496;15.798;2023-10-31T02:32:42;6.70;;;1.50;;
82374;SDS011;72005;50.496;15.798;2023-10-31T02:35:09;3.60;;;1.70;;
82374;SDS011;72005;50.496;15.798;2023-10-31T02:37:34;2.35;;;1.65;;
82374;SDS011;72005;50.496;15.798;2023-10-31T02:40:01;8.55;;;1.70;;
82374;SDS011;72005;50.496;15.798;2023-10-31T02:42:26;3.72;;;1.30;;
82374;SDS011;72005;50.496;15.798;2023-10-31T02:44:52;3.55;;;1.52;;
82374;SDS011;72005;50.496;15.798;2023-10-31T02:47:18;5.60;;;1.50;;
82374;SDS011;72005;50.496;15.798;2023-10-31T02:49:44;3.90;;;1.60;;
82374;SDS011;72005;50.496;15.798;2023-10-31T02:52:10;3.30;;;1.40;;
82374;SDS011;72005;50.496;15.798;2023-10-31T02:54:36;3.58;;;1.50;;
82374;SDS011;72005;50.496;15.798;2023-10-31T02:57:02;2.40;;;1.50;;
82374;SDS011;72005;50.496;15.798;2023-10-31T02:59:28;2.55;;;1.58;;
82374;SDS011;72005;50.496;15.798;2023-10-31T03:01:55;7.80;;;1.60;;
82374;SDS011;72005;50.496;15.798;2023-10-31T03:04:22;3.50;;;1.60;;
82374;SDS011;72005;50.496;15.798;2023-10-31T03:06:48;5.43;;;1.60;;
82374;SDS011;72005;50.496;15.798;2023-10-31T03:09:14;1.90;;;1.40;;
82374;SDS011;72005;50.496;15.798;2023-10-31T03:11:39;3.15;;;1.60;;
82374;SDS011;72005;50.496;15.798;2023-10-31T03:14:05;4.18;;;1.55;;
82374;SDS011;72005;50.496;15.798;2023-10-31T03:16:30;4.43;;;1.50;;
82374;SDS011;72005;50.496;15.798;2023-10-31T03:18:56;4.45;;;1.50;;
82374;SDS011;72005;50.496;15.798;2023-10-31T03:21:22;6.55;;;1.75;;
82374;SDS011;72005;50.496;15.798;2023-10-31T03:23:48;1.73;;;1.42;;
82374;SDS011;72005;50.496;15.798;2023-10-31T03:26:15;1.88;;;1.40;;
82374;SDS011;72005;50.496;15.798;2023-10-31T03:28:44;3.72;;;1.77;;
82374;SDS011;72005;50.496;15.798;2023-10-31T03:31:11;5.18;;;1.58;;
82374;SDS011;72005;50.496;15.798;2023-10-31T03:33:38;4.00;;;1.70;;
82374;SDS011;72005;50.496;15.798;2023-10-31T03:36:03;5.10;;;1.60;;
82374;SDS011;72005;50.496;15.798;2023-10-31T03:38:33;5.15;;;1.80;;
82374;SDS011;72005;50.496;15.798;2023-10-31T03:41:02;6.32;;;1.63;;
82374;SDS011;72005;50.496;15.798;2023-10-31T03:43:28;3.40;;;1.70;;
82374;SDS011;72005;50.496;15.798;2023-10-31T03:45:54;10.30;;;1.70;;
82374;SDS011;72005;50.496;15.798;2023-10-31T03:48:20;3.55;;;1.98;;
82374;SDS011;72005;50.496;15.798;2023-10-31T03:50:45;5.15;;;1.58;;
82374;SDS011;72005;50.496;15.798;2023-10-31T03:53:12;3.10;;;1.60;;
82374;SDS011;72005;50.496;15.798;2023-10-31T03:55:37;2.95;;;1.58;;
82374;SDS011;72005;50.496;15.798;2023-10-31T03:58:03;6.13;;;2.00;;
82374;SDS011;72005;50.496;15.798;2023-10-31T04:00:30;2.92;;;1.73;;
82374;SDS011;72005;50.496;15.798;2023-10-31T04:02:56;5.63;;;2.50;;
82374;SDS011;72005;50.496;15.798;2023-10-31T04:05:22;5.72;;;1.85;;
82374;SDS011;72005;50.496;15.798;2023-10-31T04:07:50;3.97;;;1.58;;
82374;SDS011;72005;50.496;15.798;2023-10-31T04:10:17;4.47;;;2.03;;
82374;SDS011;72005;50.496;15.798;2023-10-31T04:12:44;6.65;;;1.70;;
82374;SDS011;72005;50.496;15.798;2023-10-31T04:15:10;3.83;;;1.80;;
82374;SDS011;72005;50.496;15.798;2023-10-31T04:17:35;3.78;;;2.03;;
82374;SDS011;72005;50.496;15.798;2023-10-31T04:20:02;5.40;;;2.15;;
82374;SDS011;72005;50.496;15.798;2023-10-31T04:22:28;4.53;;;2.30;;
82374;SDS011;72005;50.496;15.798;2023-10-31T04:24:54;5.53;;;2.38;;
82374;SDS011;72005;50.496;15.798;2023-10-31T04:27:19;2.70;;;2.20;;
82374;SDS011;72005;50.496;15.798;2023-10-31T04:29:45;5.15;;;2.85;;
82374;SDS011;72005;50.496;15.798;2023-10-31T04:32:11;4.75;;;2.70;;
82374;SDS011;72005;50.496;15.798;2023-10-31T04:34:37;4.60;;;2.72;;
82374;SDS011;72005;50.496;15.798;2023-10-31T04:37:03;3.20;;;2.80;;
82374;SDS011;72005;50.496;15.798;2023-10-31T04:39:28;3.42;;;2.63;;
82374;SDS011;72005;50.496;15.798;2023-10-31T04:41:54;4.28;;;3.20;;
82374;SDS011;72005;50.496;15.798;2023-10-31T04:44:20;3.45;;;3.15;;
82374;SDS011;72005;50.496;15.798;2023-10-31T04:46:46;3.40;;;3.08;;
82374;SDS011;72005;50.496;15.798;2023-10-31T04:49:12;3.40;;;3.10;;
82374;SDS011;72005;50.496;15.798;2023-10-31T04:51:38;6.35;;;3.88;;
82374;SDS011;72005;50.496;15.798;2023-10-31T04:54:04;5.65;;;3.85;;
82374;SDS011;72005;50.496;15.798;2023-10-31T04:56:30;3.90;;;3.58;;
82374;SDS011;72005;50.496;15.798;2023-10-31T04:58:56;4.25;;;3.65;;
82374;SDS011;72005;50.496;15.798;2023-10-31T05:01:22;4.00;;;3.60;;
82374;SDS011;72005;50.496;15.798;2023-10-31T05:03:47;4.22;;;3.83;;
82374;SDS011;72005;50.496;15.798;2023-10-31T05:06:18;7.78;;;4.38;;
82374;SDS011;72005;50.496;15.798;2023-10-31T05:08:45;4.30;;;3.90;;
82374;SDS011;72005;50.496;15.798;2023-10-31T05:11:10;4.20;;;3.80;;
82374;SDS011;72005;50.496;15.798;2023-10-31T05:13:36;4.30;;;3.90;;
82374;SDS011;72005;50.496;15.798;2023-10-31T05:16:04;4.93;;;4.43;;
82374;SDS011;72005;50.496;15.798;2023-10-31T05:18:29;4.47;;;4.07;;
82374;SDS011;72005;50.496;15.798;2023-10-31T05:20:55;4.82;;;4.03;;
82374;SDS011;72005;50.496;15.798;2023-10-31T05:23:21;5.07;;;3.60;;
82374;SDS011;72005;50.496;15.798;2023-10-31T05:25:46;4.28;;;3.30;;
82374;SDS011;72005;50.496;15.798;2023-10-31T05:28:12;4.03;;;3.63;;
82374;SDS011;72005;50.496;15.798;2023-10-31T05:30:38;2.92;;;2.65;;
82374;SDS011;72005;50.496;15.798;2023-10-31T05:33:03;3.08;;;2.78;;
82374;SDS011;72005;50.496;15.798;2023-10-31T05:35:29;3.40;;;3.10;;
82374;SDS011;72005;50.496;15.798;2023-10-31T05:37:54;3.03;;;2.72;;
82374;SDS011;72005;50.496;15.798;2023-10-31T05:40:20;3.00;;;2.70;;
82374;SDS011;72005;50.496;15.798;2023-10-31T05:42:49;3.22;;;2.90;;
82374;SDS011;72005;50.496;15.798;2023-10-31T05:45:15;2.78;;;2.53;;
82374;SDS011;72005;50.496;15.798;2023-10-31T05:47:41;3.72;;;2.60;;
82374;SDS011;72005;50.496;15.798;2023-10-31T05:50:07;2.70;;;2.50;;
82374;SDS011;72005;50.496;15.798;2023-10-31T05:52:33;3.58;;;2.92;;
82374;SDS011;72005;50.496;15.798;2023-10-31T05:54:59;4.10;;;3.20;;
82374;SDS011;72005;50.496;15.798;2023-10-31T05:57:25;6.75;;;3.30;;
82374;SDS011;72005;50.496;15.798;2023-10-31T05:59:50;3.38;;;3.08;;
82374;SDS011;72005;50.496;15.798;2023-10-31T06:02:16;3.63;;;2.80;;
82374;SDS011;72005;50.496;15.798;2023-10-31T06:04:42;4.38;;;3.42;;
82374;SDS011;72005;50.496;15.798;2023-10-31T06:07:07;3.88;;;3.45;;
82374;SDS011;72005;50.496;15.798;2023-10-31T06:09:33;10.25;;;4.07;;
82374;SDS011;72005;50.496;15.798;2023-10-31T06:11:59;4.00;;;3.53;;
82374;SDS011;72005;50.496;15.798;2023-10-31T06:14:25;6.15;;;4.07;;
82374;SDS011;72005;50.496;15.798;2023-10-31T06:16:51;6.75;;;4.10;;
82374;SDS011;72005;50.496;15.798;2023-10-31T06:19:17;4.22;;;3.83;;
82374;SDS011;72005;50.496;15.798;2023-10-31T06:21:43;4.40;;;4.00;;
82374;SDS011;72005;50.496;15.798;2023-10-31T06:24:09;6.35;;;4.03;;
82374;SDS011;72005;50.496;15.798;2023-10-31T06:26:35;5.82;;;3.70;;
82374;SDS011;72005;50.496;15.798;2023-10-31T06:29:01;4.03;;;3.55;;
82374;SDS011;72005;50.496;15.798;2023-10-31T06:31:26;4.88;;;4.38;;
82374;SDS011;72005;50.496;15.798;2023-10-31T06:33:52;7.75;;;4.57;;
82374;SDS011;72005;50.496;15.798;2023-10-31T06:36:17;6.22;;;4.18;;
82374;SDS011;72005;50.496;15.798;2023-10-31T06:38:43;5.43;;;4.60;;
82374;SDS011;72005;50.496;15.798;2023-10-31T06:41:09;5.72;;;4.43;;
82374;SDS011;72005;50.496;15.798;2023-10-31T06:43:35;4.70;;;4.20;;
82374;SDS011;72005;50.496;15.798;2023-10-31T06:46:00;5.13;;;3.42;;
82374;SDS011;72005;50.496;15.798;2023-10-31T06:48:28;6.20;;;4.00;;
82374;SDS011;72005;50.496;15.798;2023-10-31T06:50:54;3.90;;;3.60;;
82374;SDS011;72005;50.496;15.798;2023-10-31T06:53:19;4.07;;;3.67;;
82374;SDS011;72005;50.496;15.798;2023-10-31T06:55:45;3.40;;;3.10;;
82374;SDS011;72005;50.496;15.798;2023-10-31T06:58:11;5.22;;;3.65;;
82374;SDS011;72005;50.496;15.798;2023-10-31T07:00:36;7.53;;;3.85;;
82374;SDS011;72005;50.496;15.798;2023-10-31T07:03:03;3.50;;;3.20;;
82374;SDS011;72005;50.496;15.798;2023-10-31T07:05:34;3.42;;;3.13;;
82374;SDS011;72005;50.496;15.798;2023-10-31T07:08:00;3.80;;;3.50;;
82374;SDS011;72005;50.496;15.798;2023-10-31T07:10:25;3.78;;;3.38;;
82374;SDS011;72005;50.496;15.798;2023-10-31T07:12:51;3.70;;;3.28;;
82374;SDS011;72005;50.496;15.798;2023-10-31T07:15:17;3.28;;;2.92;;
82374;SDS011;72005;50.496;15.798;2023-10-31T07:17:43;4.07;;;3.40;;
82374;SDS011;72005;50.496;15.798;2023-10-31T07:20:08;4.78;;;3.03;;
82374;SDS011;72005;50.496;15.798;2023-10-31T07:22:34;3.10;;;2.80;;
82374;SDS011;72005;50.496;15.798;2023-10-31T07:25:00;3.92;;;2.70;;
82374;SDS011;72005;50.496;15.798;2023-10-31T07:27:28;3.10;;;2.80;;
82374;SDS011;72005;50.496;15.798;2023-10-31T07:29:54;3.38;;;2.60;;
82374;SDS011;72005;50.496;15.798;2023-10-31T07:32:20;2.95;;;2.60;;
82374;SDS011;72005;50.496;15.798;2023-10-31T07:34:45;3.05;;;2.75;;
82374;SDS011;72005;50.496;15.798;2023-10-31T07:37:11;2.85;;;2.65;;
82374;SDS011;72005;50.496;15.798;2023-10-31T07:39:37;2.53;;;2.33;;
82374;SDS011;72005;50.496;15.798;2023-10-31T07:42:02;2.60;;;2.40;;
82374;SDS011;72005;50.496;15.798;2023-10-31T07:44:28;4.88;;;3.50;;
82374;SDS011;72005;50.496;15.798;2023-10-31T07:46:54;2.53;;;2.40;;
82374;SDS011;72005;50.496;15.798;2023-10-31T07:49:19;3.50;;;2.22;;
82374;SDS011;72005;50.496;15.798;2023-10-31T07:51:45;3.20;;;2.83;;
82374;SDS011;72005;50.496;15.798;2023-10-31T07:54:13;2.50;;;2.30;;
82374;SDS011;72005;50.496;15.798;2023-10-31T07:56:40;5.03;;;2.70;;
82374;SDS011;72005;50.496;15.798;2023-10-31T07:59:05;2.88;;;2.63;;
82374;SDS011;72005;50.496;15.798;2023-10-31T08:01:33;2.22;;;2.03;;
82374;SDS011;72005;50.496;15.798;2023-10-31T08:03:59;2.35;;;2.15;;
82374;SDS011;72005;50.496;15.798;2023-10-31T08:06:25;2.75;;;1.80;;
82374;SDS011;72005;50.496;15.798;2023-10-31T08:08:50;3.63;;;2.03;;
82374;SDS011;72005;50.496;15.798;2023-10-31T08:11:16;1.98;;;1.88;;
82374;SDS011;72005;50.496;15.798;2023-10-31T08:13:42;1.90;;;1.80;;
82374;SDS011;72005;50.496;15.798;2023-10-31T08:16:08;2.28;;;2.13;;
82374;SDS011;72005;50.496;15.798;2023-10-31T08:18:34;2.63;;;2.00;;
82374;SDS011;72005;50.496;15.798;2023-10-31T08:21:00;2.58;;;2.10;;
82374;SDS011;72005;50.496;15.798;2023-10-31T08:23:26;2.13;;;1.80;;
82374;SDS011;72005;50.496;15.798;2023-10-31T08:25:53;1.80;;;1.70;;
82374;SDS011;72005;50.496;15.798;2023-10-31T08:28:19;1.38;;;1.35;;
82374;SDS011;72005;50.496;15.798;2023-10-31T08:30:45;1.38;;;1.35;;
82374;SDS011;72005;50.496;15.798;2023-10-31T08:33:12;1.80;;;1.70;;
82374;SDS011;72005;50.496;15.798;2023-10-31T08:35:37;1.60;;;1.50;;
82374;SDS011;72005;50.496;15.798;2023-10-31T08:38:03;1.70;;;1.60;;
82374;SDS011;72005;50.496;15.798;2023-10-31T08:40:29;1.20;;;1.20;;
82374;SDS011;72005;50.496;15.798;2023-10-31T08:42:54;1.15;;;1.15;;
82374;SDS011;72005;50.496;15.798;2023-10-31T08:45:21;1.30;;;1.30;;
82374;SDS011;72005;50.496;15.798;2023-10-31T08:47:47;1.20;;;1.10;;
82374;SDS011;72005;50.496;15.798;2023-10-31T08:50:12;1.33;;;1.20;;
82374;SDS011;72005;50.496;15.798;2023-10-31T08:52:39;2.15;;;1.17;;
82374;SDS011;72005;50.496;15.798;2023-10-31T08:55:05;1.10;;;1.10;;
82374;SDS011;72005;50.496;15.798;2023-10-31T08:57:31;1.27;;;1.15;;
82374;SDS011;72005;50.496;15.798;2023-10-31T08:59:59;1.13;;;1.13;;
82374;SDS011;72005;50.496;15.798;2023-10-31T09:02:25;1.40;;;1.30;;
82374;SDS011;72005;50.496;15.798;2023-10-31T09:04:51;1.30;;;1.20;;
82374;SDS011;72005;50.496;15.798;2023-10-31T09:07:17;1.25;;;1.15;;
82374;SDS011;72005;50.496;15.798;2023-10-31T09:09:42;1.40;;;1.30;;
82374;SDS011;72005;50.496;15.798;2023-10-31T09:12:08;1.25;;;1.15;;
82374;SDS011;72005;50.496;15.798;2023-10-31T09:14:34;1.52;;;1.42;;
82374;SDS011;72005;50.496;15.798;2023-10-31T09:17:00;1.50;;;1.40;;
82374;SDS011;72005;50.496;15.798;2023-10-31T09:19:27;1.05;;;1.05;;
82374;SDS011;72005;50.496;15.798;2023-10-31T09:21:54;1.20;;;1.20;;
82374;SDS011;72005;50.496;15.798;2023-10-31T09:24:20;0.93;;;0.93;;
82374;SDS011;72005;50.496;15.798;2023-10-31T09:26:46;4.78;;;1.10;;
82374;SDS011;72005;50.496;15.798;2023-10-31T09:29:12;1.60;;;1.38;;
82374;SDS011;72005;50.496;15.798;2023-10-31T09:31:37;0.90;;;0.90;;
82374;SDS011;72005;50.496;15.798;2023-10-31T09:34:03;1.33;;;1.23;;
82374;SDS011;72005;50.496;15.798;2023-10-31T09:36:32;1.08;;;1.08;;
82374;SDS011;72005;50.496;15.798;2023-10-31T09:38:57;1.10;;;1.10;;
82374;SDS011;72005;50.496;15.798;2023-10-31T09:41:23;1.23;;;1.02;;
82374;SDS011;72005;50.496;15.798;2023-10-31T09:43:49;1.10;;;1.10;;
82374;SDS011;72005;50.496;15.798;2023-10-31T09:46:15;0.90;;;0.90;;
82374;SDS011;72005;50.496;15.798;2023-10-31T09:48:41;1.02;;;1.00;;
82374;SDS011;72005;50.496;15.798;2023-10-31T09:51:07;0.80;;;0.80;;
82374;SDS011;72005;50.496;15.798;2023-10-31T09:53:33;1.27;;;1.20;;
82374;SDS011;72005;50.496;15.798;2023-10-31T09:56:02;1.00;;;1.00;;
82374;SDS011;72005;50.496;15.798;2023-10-31T09:58:28;0.90;;;0.90;;
82374;SDS011;72005;50.496;15.798;2023-10-31T10:00:54;0.95;;;0.95;;
82374;SDS011;72005;50.496;15.798;2023-10-31T10:03:20;2.15;;;1.00;;
82374;SDS011;72005;50.496;15.798;2023-10-31T10:05:47;1.13;;;1.13;;
82374;SDS011;72005;50.496;15.798;2023-10-31T10:08:14;1.00;;;0.95;;
82374;SDS011;72005;50.496;15.798;2023-10-31T10:10:40;0.90;;;0.90;;
82374;SDS011;72005;50.496;15.798;2023-10-31T10:13:05;1.13;;;1.02;;
82374;SDS011;72005;50.496;15.798;2023-10-31T10:15:42;0.98;;;0.98;;
82374;SDS011;72005;50.496;15.798;2023-10-31T10:18:33;0.90;;;0.90;;
82374;SDS011;72005;50.496;15.798;2023-10-31T10:21:01;1.20;;;0.80;;
82374;SDS011;72005;50.496;15.798;2023-10-31T10:23:28;1.00;;;1.00;;
82374;SDS011;72005;50.496;15.798;2023-10-31T10:25:56;0.80;;;0.80;;
82374;SDS011;72005;50.496;15.798;2023-10-31T10:28:23;0.90;;;0.90;;
82374;SDS011;72005;50.496;15.798;2023-10-31T10:30:52;3.53;;;0.90;;
82374;SDS011;72005;50.496;15.798;2023-10-31T10:33:19;1.20;;;0.90;;
82374;SDS011;72005;50.496;15.798;2023-10-31T10:35:45;0.90;;;0.90;;
82374;SDS011;72005;50.496;15.798;2023-10-31T10:38:13;1.10;;;0.95;;
82374;SDS011;72005;50.496;15.798;2023-10-31T10:40:40;1.38;;;0.90;;
82374;SDS011;72005;50.496;15.798;2023-10-31T10:43:25;0.77;;;0.77;;
82374;SDS011;72005;50.496;15.798;2023-10-31T10:45:58;0.80;;;0.80;;
82374;SDS011;72005;50.496;15.798;2023-10-31T10:48:25;1.00;;;0.90;;
82374;SDS011;72005;50.496;15.798;2023-10-31T10:51:11;2.13;;;1.10;;
82374;SDS011;72005;50.496;15.798;2023-10-31T10:53:49;1.10;;;0.90;;
82374;SDS011;72005;50.496;15.798;2023-10-31T10:59:23;0.90;;;0.90;;
82374;SDS011;72005;50.496;15.798;2023-10-31T11:02:00;2.67;;;0.80;;
82374;SDS011;72005;50.496;15.798;2023-10-31T11:04:26;0.80;;;0.80;;
82374;SDS011;72005;50.496;15.798;2023-10-31T11:06:52;0.80;;;0.80;;
82374;SDS011;72005;50.496;15.798;2023-10-31T11:09:19;2.03;;;1.00;;
82374;SDS011;72005;50.496;15.798;2023-10-31T11:11:46;0.95;;;0.80;;
82374;SDS011;72005;50.496;15.798;2023-10-31T11:14:15;1.13;;;0.90;;
82374;SDS011;72005;50.496;15.798;2023-10-31T11:16:49;1.75;;;0.90;;
82374;SDS011;72005;50.496;15.798;2023-10-31T11:19:17;1.17;;;0.90;;
82374;SDS011;72005;50.496;15.798;2023-10-31T11:24:38;1.88;;;0.95;;
82374;SDS011;72005;50.496;15.798;2023-10-31T11:27:06;0.77;;;0.77;;
82374;SDS011;72005;50.496;15.798;2023-10-31T11:29:33;0.70;;;0.70;;
82374;SDS011;72005;50.496;15.798;2023-10-31T11:32:01;0.70;;;0.70;;
82374;SDS011;72005;50.496;15.798;2023-10-31T11:34:27;3.63;;;0.80;;
82374;SDS011;72005;50.496;15.798;2023-10-31T11:36:53;0.73;;;0.73;;
82374;SDS011;72005;50.496;15.798;2023-10-31T11:39:20;0.80;;;0.80;;
82374;SDS011;72005;50.496;15.798;2023-10-31T11:41:53;0.90;;;0.88;;
82374;SDS011;72005;50.496;15.798;2023-10-31T11:44:23;0.70;;;0.70;;
82374;SDS011;72005;50.496;15.798;2023-10-31T11:46:51;0.88;;;0.77;;
82374;SDS011;72005;50.496;15.798;2023-10-31T11:49:18;0.80;;;0.80;;
82374;SDS011;72005;50.496;15.798;2023-10-31T11:52:13;1.95;;;0.70;;
82374;SDS011;72005;50.496;15.798;2023-10-31T11:54:40;0.90;;;0.70;;
82374;SDS011;72005;50.496;15.798;2023-10-31T11:57:06;3.88;;;1.08;;
82374;SDS011;72005;50.496;15.798;2023-10-31T11:59:35;0.75;;;0.75;;
82374;SDS011;72005;50.496;15.798;2023-10-31T12:02:12;0.60;;;0.60;;
82374;SDS011;72005;50.496;15.798;2023-10-31T12:04:39;0.70;;;0.70;;
82374;SDS011;72005;50.496;15.798;2023-10-31T12:07:04;0.50;;;0.50;;
82374;SDS011;72005;50.496;15.798;2023-10-31T12:09:31;0.63;;;0.63;;
82374;SDS011;72005;50.496;15.798;2023-10-31T12:11:56;1.48;;;0.60;;
82374;SDS011;72005;50.496;15.798;2023-10-31T12:14:22;0.57;;;0.57;;
82374;SDS011;72005;50.496;15.798;2023-10-31T12:16:47;0.47;;;0.47;;
82374;SDS011;72005;50.496;15.798;2023-10-31T12:19:13;0.68;;;0.68;;
82374;SDS011;72005;50.496;15.798;2023-10-31T12:21:43;0.60;;;0.60;;
82374;SDS011;72005;50.496;15.798;2023-10-31T12:24:13;3.13;;;0.60;;
82374;SDS011;72005;50.496;15.798;2023-10-31T12:26:40;0.93;;;0.80;;
82374;SDS011;72005;50.496;15.798;2023-10-31T12:29:19;0.50;;;0.50;;
82374;SDS011;72005;50.496;15.798;2023-10-31T12:31:47;1.15;;;0.75;;
82374;SDS011;72005;50.496;15.798;2023-10-31T12:36:47;0.45;;;0.45;;
82374;SDS011;72005;50.496;15.798;2023-10-31T12:39:15;0.50;;;0.50;;
82374;SDS011;72005;50.496;15.798;2023-10-31T12:41:43;0.50;;;0.50;;
82374;SDS011;72005;50.496;15.798;2023-10-31T12:44:09;0.50;;;0.50;;
82374;SDS011;72005;50.496;15.798;2023-10-31T12:46:38;0.57;;;0.57;;
82374;SDS011;72005;50.496;15.798;2023-10-31T12:49:12;0.65;;;0.65;;
82374;SDS011;72005;50.496;15.798;2023-10-31T12:54:34;0.60;;;0.60;;
82374;SDS011;72005;50.496;15.798;2023-10-31T12:57:01;0.40;;;0.40;;
82374;SDS011;72005;50.496;15.798;2023-10-31T12:59:29;0.50;;;0.50;;
82374;SDS011;72005;50.496;15.798;2023-10-31T13:01:59;0.50;;;0.50;;
82374;SDS011;72005;50.496;15.798;2023-10-31T13:04:29;2.33;;;0.68;;
82374;SDS011;72005;50.496;15.798;2023-10-31T13:07:02;0.63;;;0.60;;
82374;SDS011;72005;50.496;15.798;2023-10-31T13:09:29;0.52;;;0.50;;
82374;SDS011;72005;50.496;15.798;2023-10-31T13:12:02;0.70;;;0.70;;
82374;SDS011;72005;50.496;15.798;2023-10-31T13:14:29;0.60;;;0.60;;
82374;SDS011;72005;50.496;15.798;2023-10-31T13:16:55;0.82;;;0.80;;
82374;SDS011;72005;50.496;15.798;2023-10-31T13:19:21;1.50;;;0.70;;
82374;SDS011;72005;50.496;15.798;2023-10-31T13:21:47;2.30;;;0.80;;
82374;SDS011;72005;50.496;15.798;2023-10-31T13:24:13;0.63;;;0.63;;
82374;SDS011;72005;50.496;15.798;2023-10-31T13:26:39;0.88;;;0.60;;
82374;SDS011;72005;50.496;15.798;2023-10-31T13:29:04;1.08;;;0.90;;
82374;SDS011;72005;50.496;15.798;2023-10-31T13:31:30;0.95;;;0.70;;
82374;SDS011;72005;50.496;15.798;2023-10-31T13:33:56;1.27;;;0.75;;
82374;SDS011;72005;50.496;15.798;2023-10-31T13:36:22;0.65;;;0.65;;
82374;SDS011;72005;50.496;15.798;2023-10-31T13:38:47;0.63;;;0.40;;
82374;SDS011;72005;50.496;15.798;2023-10-31T13:41:14;2.25;;;0.60;;
82374;SDS011;72005;50.496;15.798;2023-10-31T13:43:40;0.95;;;0.63;;
82374;SDS011;72005;50.496;15.798;2023-10-31T13:46:05;1.08;;;0.60;;
82374;SDS011;72005;50.496;15.798;2023-10-31T13:48:31;0.75;;;0.70;;
82374;SDS011;72005;50.496;15.798;2023-10-31T13:50:57;1.08;;;0.80;;
82374;SDS011;72005;50.496;15.798;2023-10-31T13:53:23;0.95;;;0.52;;
82374;SDS011;72005;50.496;15.798;2023-10-31T13:55:49;1.55;;;0.80;;
82374;SDS011;72005;50.496;15.798;2023-10-31T13:58:14;0.70;;;0.70;;
82374;SDS011;72005;50.496;15.798;2023-10-31T14:00:41;1.63;;;0.70;;
82374;SDS011;72005;50.496;15.798;2023-10-31T14:03:08;0.80;;;0.80;;
82374;SDS011;72005;50.496;15.798;2023-10-31T14:05:34;0.80;;;0.80;;
82374;SDS011;72005;50.496;15.798;2023-10-31T14:08:00;0.77;;;0.75;;
82374;SDS011;72005;50.496;15.798;2023-10-31T14:10:25;3.08;;;0.80;;
82374;SDS011;72005;50.496;15.798;2023-10-31T14:12:51;0.60;;;0.60;;
82374;SDS011;72005;50.496;15.798;2023-10-31T14:15:18;3.92;;;0.80;;
82374;SDS011;72005;50.496;15.798;2023-10-31T14:17:43;2.58;;;0.90;;
82374;SDS011;72005;50.496;15.798;2023-10-31T14:20:10;0.60;;;0.60;;
82374;SDS011;72005;50.496;15.798;2023-10-31T14:22:35;0.93;;;0.80;;
82374;SDS011;72005;50.496;15.798;2023-10-31T14:25:01;0.85;;;0.70;;
82374;SDS011;72005;50.496;15.798;2023-10-31T14:27:29;0.47;;;0.47;;
82374;SDS011;72005;50.496;15.798;2023-10-31T14:29:55;0.75;;;0.75;;
82374;SDS011;72005;50.496;15.798;2023-10-31T14:32:20;1.80;;;0.70;;
82374;SDS011;72005;50.496;15.798;2023-10-31T14:34:46;0.77;;;0.77;;
82374;SDS011;72005;50.496;15.798;2023-10-31T14:37:12;0.80;;;0.70;;
82374;SDS011;72005;50.496;15.798;2023-10-31T14:39:38;2.40;;;0.73;;
82374;SDS011;72005;50.496;15.798;2023-10-31T14:42:03;0.60;;;0.60;;